Pamelia, New York
Current Conditions -  °F | °C
As of 9:43 AM on Friday 24 Oct 2014 (Local Time) from KGTB Reporting Station
Scattered Clouds Scattered Clouds  
Wind Chill: 44°   Ceiling: Unl
Heat Index: 46°   Visibility: 10mi
Dew Point: 43°   Wind: 6mph
Humidity: 87%   Direction: NA
Pressure: 29.93"   Gusts: NA
Location:  44.0981°N, 75.8331°W
Report Text: KGTB 241343Z AUTO VRB05KT 10SM SCT011 08/06 A2993 RMK AO2
Loading
Personal Weather Stations






























Interactive Weather Map New forecast layout! Learn more

10-Day Weather Forecast

Advertisements
Track Severe Weather on mobile